sensor_id;sensor_type;location;lat;lon;timestamp;P1;durP1;ratioP1;P2;durP2;ratioP2
37483;SDS011;23337;52.212;9.926;2023-04-25T00:01:10;10.30;;;4.73;;
37483;SDS011;23337;52.212;9.926;2023-04-25T00:03:38;6.63;;;4.00;;
37483;SDS011;23337;52.212;9.926;2023-04-25T00:06:04;10.50;;;4.60;;
37483;SDS011;23337;52.212;9.926;2023-04-25T00:08:31;10.10;;;4.80;;
37483;SDS011;23337;52.212;9.926;2023-04-25T00:10:57;11.03;;;4.23;;
37483;SDS011;23337;52.212;9.926;2023-04-25T00:13:23;8.93;;;4.23;;
37483;SDS011;23337;52.212;9.926;2023-04-25T00:15:50;8.93;;;5.13;;
37483;SDS011;23337;52.212;9.926;2023-04-25T00:18:16;6.40;;;3.83;;
37483;SDS011;23337;52.212;9.926;2023-04-25T00:20:42;11.53;;;5.07;;
37483;SDS011;23337;52.212;9.926;2023-04-25T00:23:11;12.80;;;5.97;;
37483;SDS011;23337;52.212;9.926;2023-04-25T00:25:37;13.17;;;5.03;;
37483;SDS011;23337;52.212;9.926;2023-04-25T00:28:03;8.20;;;4.43;;
37483;SDS011;23337;52.212;9.926;2023-04-25T00:30:29;10.33;;;4.93;;
37483;SDS011;23337;52.212;9.926;2023-04-25T00:32:55;7.97;;;3.93;;
37483;SDS011;23337;52.212;9.926;2023-04-25T00:35:21;7.83;;;4.63;;
37483;SDS011;23337;52.212;9.926;2023-04-25T00:37:47;9.27;;;5.77;;
37483;SDS011;23337;52.212;9.926;2023-04-25T00:40:13;14.00;;;5.50;;
37483;SDS011;23337;52.212;9.926;2023-04-25T00:42:39;13.07;;;4.70;;
37483;SDS011;23337;52.212;9.926;2023-04-25T00:45:06;7.50;;;4.53;;
37483;SDS011;23337;52.212;9.926;2023-04-25T00:47:32;10.50;;;5.27;;
37483;SDS011;23337;52.212;9.926;2023-04-25T00:49:59;8.77;;;5.17;;
37483;SDS011;23337;52.212;9.926;2023-04-25T00:52:25;10.07;;;5.27;;
37483;SDS011;23337;52.212;9.926;2023-04-25T00:54:51;14.80;;;5.37;;
37483;SDS011;23337;52.212;9.926;2023-04-25T00:57:17;11.43;;;5.93;;
37483;SDS011;23337;52.212;9.926;2023-04-25T00:59:44;13.10;;;6.33;;
37483;SDS011;23337;52.212;9.926;2023-04-25T01:02:11;8.33;;;6.27;;
37483;SDS011;23337;52.212;9.926;2023-04-25T01:04:37;10.83;;;5.67;;
37483;SDS011;23337;52.212;9.926;2023-04-25T01:07:03;11.43;;;5.60;;
37483;SDS011;23337;52.212;9.926;2023-04-25T01:09:29;13.77;;;5.57;;
37483;SDS011;23337;52.212;9.926;2023-04-25T01:11:56;10.53;;;5.97;;
37483;SDS011;23337;52.212;9.926;2023-04-25T01:14:22;14.70;;;6.07;;
37483;SDS011;23337;52.212;9.926;2023-04-25T01:16:48;14.00;;;6.63;;
37483;SDS011;23337;52.212;9.926;2023-04-25T01:19:16;12.97;;;6.00;;
37483;SDS011;23337;52.212;9.926;2023-04-25T01:21:43;12.87;;;6.00;;
37483;SDS011;23337;52.212;9.926;2023-04-25T01:24:10;13.47;;;5.73;;
37483;SDS011;23337;52.212;9.926;2023-04-25T01:26:36;8.87;;;5.67;;
37483;SDS011;23337;52.212;9.926;2023-04-25T01:29:03;9.40;;;6.37;;
37483;SDS011;23337;52.212;9.926;2023-04-25T01:31:30;11.57;;;6.97;;
37483;SDS011;23337;52.212;9.926;2023-04-25T01:33:57;8.87;;;5.87;;
37483;SDS011;23337;52.212;9.926;2023-04-25T01:36:23;10.20;;;6.80;;
37483;SDS011;23337;52.212;9.926;2023-04-25T01:38:49;13.80;;;6.47;;
37483;SDS011;23337;52.212;9.926;2023-04-25T01:41:15;11.83;;;6.53;;
37483;SDS011;23337;52.212;9.926;2023-04-25T01:43:42;9.27;;;6.87;;
37483;SDS011;23337;52.212;9.926;2023-04-25T01:46:08;11.30;;;6.57;;
37483;SDS011;23337;52.212;9.926;2023-04-25T01:48:34;10.53;;;6.40;;
37483;SDS011;23337;52.212;9.926;2023-04-25T01:51:00;11.83;;;6.20;;
37483;SDS011;23337;52.212;9.926;2023-04-25T01:53:26;11.50;;;7.20;;
37483;SDS011;23337;52.212;9.926;2023-04-25T01:55:52;10.23;;;6.40;;
37483;SDS011;23337;52.212;9.926;2023-04-25T01:58:18;14.80;;;8.27;;
37483;SDS011;23337;52.212;9.926;2023-04-25T02:00:44;12.40;;;6.43;;
37483;SDS011;23337;52.212;9.926;2023-04-25T02:03:10;11.80;;;7.13;;
37483;SDS011;23337;52.212;9.926;2023-04-25T02:05:37;16.50;;;6.57;;
37483;SDS011;23337;52.212;9.926;2023-04-25T02:08:04;12.57;;;8.00;;
37483;SDS011;23337;52.212;9.926;2023-04-25T02:10:30;10.73;;;6.90;;
37483;SDS011;23337;52.212;9.926;2023-04-25T02:12:56;13.83;;;7.73;;
37483;SDS011;23337;52.212;9.926;2023-04-25T02:15:22;14.67;;;7.63;;
37483;SDS011;23337;52.212;9.926;2023-04-25T02:17:48;11.37;;;8.00;;
37483;SDS011;23337;52.212;9.926;2023-04-25T02:20:14;10.30;;;7.80;;
37483;SDS011;23337;52.212;9.926;2023-04-25T02:22:44;12.83;;;7.57;;
37483;SDS011;23337;52.212;9.926;2023-04-25T02:25:10;16.30;;;8.17;;
37483;SDS011;23337;52.212;9.926;2023-04-25T02:27:36;12.37;;;7.00;;
37483;SDS011;23337;52.212;9.926;2023-04-25T02:30:03;13.50;;;8.57;;
37483;SDS011;23337;52.212;9.926;2023-04-25T02:32:29;11.53;;;7.30;;
37483;SDS011;23337;52.212;9.926;2023-04-25T02:34:55;10.57;;;7.53;;
37483;SDS011;23337;52.212;9.926;2023-04-25T02:37:23;15.53;;;7.80;;
37483;SDS011;23337;52.212;9.926;2023-04-25T02:39:49;11.50;;;7.83;;
37483;SDS011;23337;52.212;9.926;2023-04-25T02:42:15;15.23;;;8.20;;
37483;SDS011;23337;52.212;9.926;2023-04-25T02:44:41;9.23;;;6.27;;
37483;SDS011;23337;52.212;9.926;2023-04-25T02:47:07;13.60;;;7.93;;
37483;SDS011;23337;52.212;9.926;2023-04-25T02:49:33;14.27;;;8.10;;
37483;SDS011;23337;52.212;9.926;2023-04-25T02:51:59;10.53;;;7.17;;
37483;SDS011;23337;52.212;9.926;2023-04-25T02:54:25;13.30;;;7.67;;
37483;SDS011;23337;52.212;9.926;2023-04-25T02:56:51;10.37;;;7.53;;
37483;SDS011;23337;52.212;9.926;2023-04-25T02:59:17;12.10;;;8.17;;
37483;SDS011;23337;52.212;9.926;2023-04-25T03:01:43;11.57;;;7.07;;
37483;SDS011;23337;52.212;9.926;2023-04-25T03:04:08;8.40;;;6.17;;
37483;SDS011;23337;52.212;9.926;2023-04-25T03:06:34;12.20;;;6.60;;
37483;SDS011;23337;52.212;9.926;2023-04-25T03:09:00;12.83;;;6.93;;
37483;SDS011;23337;52.212;9.926;2023-04-25T03:11:26;8.00;;;5.60;;
37483;SDS011;23337;52.212;9.926;2023-04-25T03:13:52;14.57;;;5.60;;
37483;SDS011;23337;52.212;9.926;2023-04-25T03:16:18;11.87;;;5.43;;
37483;SDS011;23337;52.212;9.926;2023-04-25T03:18:44;11.07;;;4.47;;
37483;SDS011;23337;52.212;9.926;2023-04-25T03:21:10;10.20;;;4.77;;
37483;SDS011;23337;52.212;9.926;2023-04-25T03:23:36;14.03;;;4.67;;
37483;SDS011;23337;52.212;9.926;2023-04-25T03:26:02;13.03;;;4.87;;
37483;SDS011;23337;52.212;9.926;2023-04-25T03:28:28;9.87;;;4.70;;
37483;SDS011;23337;52.212;9.926;2023-04-25T03:30:54;12.00;;;4.17;;
37483;SDS011;23337;52.212;9.926;2023-04-25T03:33:20;6.70;;;3.80;;
37483;SDS011;23337;52.212;9.926;2023-04-25T03:35:46;9.77;;;4.00;;
37483;SDS011;23337;52.212;9.926;2023-04-25T03:38:12;12.37;;;4.43;;
37483;SDS011;23337;52.212;9.926;2023-04-25T03:40:38;9.80;;;3.87;;
37483;SDS011;23337;52.212;9.926;2023-04-25T03:43:04;13.33;;;3.73;;
37483;SDS011;23337;52.212;9.926;2023-04-25T03:45:30;9.77;;;3.50;;
37483;SDS011;23337;52.212;9.926;2023-04-25T03:47:56;12.70;;;3.93;;
37483;SDS011;23337;52.212;9.926;2023-04-25T03:50:22;11.73;;;3.63;;
37483;SDS011;23337;52.212;9.926;2023-04-25T03:52:48;10.10;;;3.33;;
37483;SDS011;23337;52.212;9.926;2023-04-25T03:55:14;13.40;;;3.70;;
37483;SDS011;23337;52.212;9.926;2023-04-25T03:57:40;9.63;;;3.80;;
37483;SDS011;23337;52.212;9.926;2023-04-25T04:00:06;14.33;;;3.53;;
37483;SDS011;23337;52.212;9.926;2023-04-25T04:02:32;11.10;;;3.93;;
37483;SDS011;23337;52.212;9.926;2023-04-25T04:04:59;13.97;;;5.20;;
37483;SDS011;23337;52.212;9.926;2023-04-25T04:07:25;12.50;;;4.00;;
37483;SDS011;23337;52.212;9.926;2023-04-25T04:09:51;15.80;;;4.73;;
37483;SDS011;23337;52.212;9.926;2023-04-25T04:12:17;10.63;;;3.73;;
37483;SDS011;23337;52.212;9.926;2023-04-25T04:14:43;11.17;;;4.10;;
37483;SDS011;23337;52.212;9.926;2023-04-25T04:17:09;10.73;;;3.93;;
37483;SDS011;23337;52.212;9.926;2023-04-25T04:19:35;14.70;;;4.77;;
37483;SDS011;23337;52.212;9.926;2023-04-25T04:22:01;10.07;;;4.03;;
37483;SDS011;23337;52.212;9.926;2023-04-25T04:24:27;19.83;;;4.40;;
37483;SDS011;23337;52.212;9.926;2023-04-25T04:26:53;7.80;;;4.23;;
37483;SDS011;23337;52.212;9.926;2023-04-25T04:29:19;11.77;;;5.77;;
37483;SDS011;23337;52.212;9.926;2023-04-25T04:31:49;9.77;;;4.70;;
37483;SDS011;23337;52.212;9.926;2023-04-25T04:34:18;13.67;;;4.27;;
37483;SDS011;23337;52.212;9.926;2023-04-25T04:36:45;14.97;;;4.37;;
37483;SDS011;23337;52.212;9.926;2023-04-25T04:39:12;11.77;;;4.80;;
37483;SDS011;23337;52.212;9.926;2023-04-25T04:41:38;10.47;;;4.10;;
37483;SDS011;23337;52.212;9.926;2023-04-25T04:44:05;12.77;;;3.40;;
37483;SDS011;23337;52.212;9.926;2023-04-25T04:46:31;11.30;;;4.50;;
37483;SDS011;23337;52.212;9.926;2023-04-25T04:49:04;13.97;;;4.20;;
37483;SDS011;23337;52.212;9.926;2023-04-25T04:51:30;16.50;;;4.40;;
37483;SDS011;23337;52.212;9.926;2023-04-25T04:53:56;17.70;;;5.00;;
37483;SDS011;23337;52.212;9.926;2023-04-25T04:56:23;14.43;;;4.77;;
37483;SDS011;23337;52.212;9.926;2023-04-25T04:58:50;14.80;;;4.67;;
37483;SDS011;23337;52.212;9.926;2023-04-25T05:01:17;15.03;;;4.70;;
37483;SDS011;23337;52.212;9.926;2023-04-25T05:03:43;19.57;;;4.87;;
37483;SDS011;23337;52.212;9.926;2023-04-25T05:06:09;11.33;;;3.60;;
37483;SDS011;23337;52.212;9.926;2023-04-25T05:08:36;18.50;;;4.77;;
37483;SDS011;23337;52.212;9.926;2023-04-25T05:11:02;12.80;;;4.07;;
37483;SDS011;23337;52.212;9.926;2023-04-25T05:13:28;13.63;;;4.63;;
37483;SDS011;23337;52.212;9.926;2023-04-25T05:15:54;15.33;;;4.80;;
37483;SDS011;23337;52.212;9.926;2023-04-25T05:18:20;15.07;;;3.83;;
37483;SDS011;23337;52.212;9.926;2023-04-25T05:20:46;14.60;;;4.90;;
37483;SDS011;23337;52.212;9.926;2023-04-25T05:23:12;15.27;;;3.80;;
37483;SDS011;23337;52.212;9.926;2023-04-25T05:25:38;18.20;;;4.43;;
37483;SDS011;23337;52.212;9.926;2023-04-25T05:28:04;19.63;;;4.80;;
37483;SDS011;23337;52.212;9.926;2023-04-25T05:30:30;15.23;;;4.13;;
37483;SDS011;23337;52.212;9.926;2023-04-25T05:32:56;12.87;;;4.67;;
37483;SDS011;23337;52.212;9.926;2023-04-25T05:35:22;11.23;;;4.07;;
37483;SDS011;23337;52.212;9.926;2023-04-25T05:37:48;16.93;;;4.90;;
37483;SDS011;23337;52.212;9.926;2023-04-25T05:40:14;16.03;;;4.53;;
37483;SDS011;23337;52.212;9.926;2023-04-25T05:42:40;14.80;;;4.60;;
37483;SDS011;23337;52.212;9.926;2023-04-25T05:45:06;13.73;;;4.90;;
37483;SDS011;23337;52.212;9.926;2023-04-25T05:47:32;14.90;;;4.60;;
37483;SDS011;23337;52.212;9.926;2023-04-25T05:49:58;13.40;;;4.50;;
37483;SDS011;23337;52.212;9.926;2023-04-25T05:52:24;19.60;;;5.27;;
37483;SDS011;23337;52.212;9.926;2023-04-25T05:54:50;16.43;;;4.63;;
37483;SDS011;23337;52.212;9.926;2023-04-25T05:57:24;17.73;;;3.97;;
37483;SDS011;23337;52.212;9.926;2023-04-25T05:59:51;17.13;;;3.50;;
37483;SDS011;23337;52.212;9.926;2023-04-25T06:02:18;11.40;;;3.23;;
37483;SDS011;23337;52.212;9.926;2023-04-25T06:04:44;11.57;;;3.30;;
37483;SDS011;23337;52.212;9.926;2023-04-25T06:07:10;17.93;;;4.07;;
37483;SDS011;23337;52.212;9.926;2023-04-25T06:09:36;15.63;;;3.57;;
37483;SDS011;23337;52.212;9.926;2023-04-25T06:12:04;13.27;;;3.60;;
37483;SDS011;23337;52.212;9.926;2023-04-25T06:14:30;15.47;;;4.03;;
37483;SDS011;23337;52.212;9.926;2023-04-25T06:16:56;14.13;;;3.60;;
37483;SDS011;23337;52.212;9.926;2023-04-25T06:19:22;11.37;;;3.20;;
37483;SDS011;23337;52.212;9.926;2023-04-25T06:21:48;17.07;;;4.40;;
37483;SDS011;23337;52.212;9.926;2023-04-25T06:24:13;12.47;;;3.83;;
37483;SDS011;23337;52.212;9.926;2023-04-25T06:26:39;19.77;;;5.43;;
37483;SDS011;23337;52.212;9.926;2023-04-25T06:29:05;17.60;;;3.73;;
37483;SDS011;23337;52.212;9.926;2023-04-25T06:31:31;10.27;;;3.80;;
37483;SDS011;23337;52.212;9.926;2023-04-25T06:33:58;14.63;;;4.40;;
37483;SDS011;23337;52.212;9.926;2023-04-25T06:36:24;10.07;;;3.23;;
37483;SDS011;23337;52.212;9.926;2023-04-25T06:38:52;23.43;;;3.60;;
37483;SDS011;23337;52.212;9.926;2023-04-25T06:41:18;20.63;;;4.37;;
37483;SDS011;23337;52.212;9.926;2023-04-25T06:43:44;15.50;;;3.37;;
37483;SDS011;23337;52.212;9.926;2023-04-25T06:46:10;12.27;;;2.97;;
37483;SDS011;23337;52.212;9.926;2023-04-25T06:48:36;11.17;;;2.63;;
37483;SDS011;23337;52.212;9.926;2023-04-25T06:51:02;17.10;;;3.50;;
37483;SDS011;23337;52.212;9.926;2023-04-25T06:53:28;12.47;;;3.13;;
37483;SDS011;23337;52.212;9.926;2023-04-25T06:55:54;13.73;;;3.37;;
37483;SDS011;23337;52.212;9.926;2023-04-25T06:58:20;11.53;;;3.80;;
37483;SDS011;23337;52.212;9.926;2023-04-25T07:00:47;8.00;;;3.20;;
37483;SDS011;23337;52.212;9.926;2023-04-25T07:03:13;13.77;;;3.33;;
37483;SDS011;23337;52.212;9.926;2023-04-25T07:05:39;8.67;;;2.97;;
37483;SDS011;23337;52.212;9.926;2023-04-25T07:08:05;10.97;;;3.20;;
37483;SDS011;23337;52.212;9.926;2023-04-25T07:10:31;24.13;;;3.97;;
37483;SDS011;23337;52.212;9.926;2023-04-25T07:12:57;10.83;;;3.50;;
37483;SDS011;23337;52.212;9.926;2023-04-25T07:15:23;12.60;;;2.90;;
37483;SDS011;23337;52.212;9.926;2023-04-25T07:17:49;13.97;;;2.80;;
37483;SDS011;23337;52.212;9.926;2023-04-25T07:20:16;9.43;;;2.87;;
37483;SDS011;23337;52.212;9.926;2023-04-25T07:22:42;10.53;;;3.40;;
37483;SDS011;23337;52.212;9.926;2023-04-25T07:25:09;15.00;;;3.33;;
37483;SDS011;23337;52.212;9.926;2023-04-25T07:27:35;13.27;;;3.33;;
37483;SDS011;23337;52.212;9.926;2023-04-25T07:30:01;18.80;;;3.53;;
37483;SDS011;23337;52.212;9.926;2023-04-25T07:32:28;11.17;;;2.90;;
37483;SDS011;23337;52.212;9.926;2023-04-25T07:34:54;12.17;;;2.57;;
37483;SDS011;23337;52.212;9.926;2023-04-25T07:37:20;9.20;;;2.43;;
37483;SDS011;23337;52.212;9.926;2023-04-25T07:39:46;7.80;;;2.93;;
37483;SDS011;23337;52.212;9.926;2023-04-25T07:42:12;6.90;;;2.40;;
37483;SDS011;23337;52.212;9.926;2023-04-25T07:44:39;10.35;;;3.63;;
37483;SDS011;23337;52.212;9.926;2023-04-25T07:47:05;7.43;;;3.00;;
37483;SDS011;23337;52.212;9.926;2023-04-25T07:49:35;7.13;;;2.90;;
37483;SDS011;23337;52.212;9.926;2023-04-25T07:52:01;10.70;;;2.70;;
37483;SDS011;23337;52.212;9.926;2023-04-25T07:54:28;9.17;;;2.80;;
37483;SDS011;23337;52.212;9.926;2023-04-25T07:56:54;11.47;;;2.37;;
37483;SDS011;23337;52.212;9.926;2023-04-25T07:59:20;8.27;;;2.37;;
37483;SDS011;23337;52.212;9.926;2023-04-25T08:01:46;11.70;;;2.43;;
37483;SDS011;23337;52.212;9.926;2023-04-25T08:04:12;8.07;;;2.20;;
37483;SDS011;23337;52.212;9.926;2023-04-25T08:06:38;11.50;;;2.73;;
37483;SDS011;23337;52.212;9.926;2023-04-25T08:09:05;10.07;;;3.10;;
37483;SDS011;23337;52.212;9.926;2023-04-25T08:11:31;13.10;;;2.90;;
37483;SDS011;23337;52.212;9.926;2023-04-25T08:13:57;9.33;;;2.13;;
37483;SDS011;23337;52.212;9.926;2023-04-25T08:16:23;9.32;;;2.70;;
37483;SDS011;23337;52.212;9.926;2023-04-25T08:18:50;10.40;;;2.53;;
37483;SDS011;23337;52.212;9.926;2023-04-25T08:21:16;10.67;;;3.57;;
37483;SDS011;23337;52.212;9.926;2023-04-25T08:23:42;10.40;;;2.40;;
37483;SDS011;23337;52.212;9.926;2023-04-25T08:26:08;11.53;;;2.83;;
37483;SDS011;23337;52.212;9.926;2023-04-25T08:28:34;10.57;;;2.43;;
37483;SDS011;23337;52.212;9.926;2023-04-25T08:31:00;7.63;;;2.03;;
37483;SDS011;23337;52.212;9.926;2023-04-25T08:33:26;9.70;;;2.33;;
37483;SDS011;23337;52.212;9.926;2023-04-25T08:35:52;7.13;;;2.03;;
37483;SDS011;23337;52.212;9.926;2023-04-25T08:38:18;8.37;;;2.50;;
37483;SDS011;23337;52.212;9.926;2023-04-25T08:40:44;5.50;;;1.93;;
37483;SDS011;23337;52.212;9.926;2023-04-25T08:43:15;12.23;;;2.37;;
37483;SDS011;23337;52.212;9.926;2023-04-25T08:45:43;5.70;;;2.43;;
37483;SDS011;23337;52.212;9.926;2023-04-25T08:48:11;8.20;;;1.93;;
37483;SDS011;23337;52.212;9.926;2023-04-25T08:50:39;6.37;;;2.10;;
37483;SDS011;23337;52.212;9.926;2023-04-25T08:53:05;9.67;;;2.10;;
37483;SDS011;23337;52.212;9.926;2023-04-25T08:55:36;12.50;;;1.70;;
37483;SDS011;23337;52.212;9.926;2023-04-25T08:58:03;7.70;;;2.93;;
37483;SDS011;23337;52.212;9.926;2023-04-25T09:00:30;8.47;;;2.57;;
37483;SDS011;23337;52.212;9.926;2023-04-25T09:02:57;7.10;;;1.93;;
37483;SDS011;23337;52.212;9.926;2023-04-25T09:05:23;6.50;;;2.20;;
37483;SDS011;23337;52.212;9.926;2023-04-25T09:07:49;4.20;;;1.43;;
37483;SDS011;23337;52.212;9.926;2023-04-25T09:10:15;7.70;;;2.00;;
37483;SDS011;23337;52.212;9.926;2023-04-25T09:12:41;8.40;;;2.30;;
37483;SDS011;23337;52.212;9.926;2023-04-25T09:15:10;6.97;;;2.30;;
37483;SDS011;23337;52.212;9.926;2023-04-25T09:17:37;7.47;;;2.37;;
37483;SDS011;23337;52.212;9.926;2023-04-25T09:20:15;5.87;;;1.70;;
37483;SDS011;23337;52.212;9.926;2023-04-25T09:22:41;8.20;;;1.70;;
37483;SDS011;23337;52.212;9.926;2023-04-25T09:25:09;5.37;;;1.50;;
37483;SDS011;23337;52.212;9.926;2023-04-25T09:27:36;8.63;;;2.20;;
37483;SDS011;23337;52.212;9.926;2023-04-25T09:30:02;9.20;;;1.93;;
37483;SDS011;23337;52.212;9.926;2023-04-25T09:32:28;8.03;;;2.73;;
37483;SDS011;23337;52.212;9.926;2023-04-25T09:34:54;9.00;;;1.57;;
37483;SDS011;23337;52.212;9.926;2023-04-25T09:37:29;6.03;;;1.80;;
37483;SDS011;23337;52.212;9.926;2023-04-25T09:39:56;8.00;;;2.17;;
37483;SDS011;23337;52.212;9.926;2023-04-25T09:42:27;8.87;;;1.80;;
37483;SDS011;23337;52.212;9.926;2023-04-25T09:44:54;9.83;;;2.53;;
37483;SDS011;23337;52.212;9.926;2023-04-25T09:47:20;8.40;;;2.30;;
37483;SDS011;23337;52.212;9.926;2023-04-25T09:49:48;5.40;;;1.97;;
37483;SDS011;23337;52.212;9.926;2023-04-25T09:52:15;7.07;;;2.00;;
37483;SDS011;23337;52.212;9.926;2023-04-25T09:54:42;5.90;;;1.60;;
37483;SDS011;23337;52.212;9.926;2023-04-25T09:57:10;4.67;;;1.30;;
37483;SDS011;23337;52.212;9.926;2023-04-25T09:59:38;3.17;;;1.37;;
37483;SDS011;23337;52.212;9.926;2023-04-25T10:02:04;5.43;;;1.30;;
37483;SDS011;23337;52.212;9.926;2023-04-25T10:04:30;6.07;;;1.43;;
37483;SDS011;23337;52.212;9.926;2023-04-25T10:07:00;5.77;;;1.27;;
37483;SDS011;23337;52.212;9.926;2023-04-25T10:09:26;5.90;;;1.33;;
37483;SDS011;23337;52.212;9.926;2023-04-25T10:11:56;3.77;;;1.10;;
37483;SDS011;23337;52.212;9.926;2023-04-25T10:14:23;5.57;;;1.40;;
37483;SDS011;23337;52.212;9.926;2023-04-25T10:16:49;6.80;;;2.07;;
37483;SDS011;23337;52.212;9.926;2023-04-25T10:19:18;4.47;;;1.43;;
37483;SDS011;23337;52.212;9.926;2023-04-25T10:21:55;3.43;;;1.23;;
37483;SDS011;23337;52.212;9.926;2023-04-25T10:24:22;6.03;;;1.40;;
37483;SDS011;23337;52.212;9.926;2023-04-25T10:26:48;8.23;;;2.03;;
37483;SDS011;23337;52.212;9.926;2023-04-25T10:29:21;6.67;;;1.57;;
37483;SDS011;23337;52.212;9.926;2023-04-25T10:31:48;4.87;;;1.73;;
37483;SDS011;23337;52.212;9.926;2023-04-25T10:34:14;4.53;;;1.43;;
37483;SDS011;23337;52.212;9.926;2023-04-25T10:36:41;4.60;;;1.33;;
37483;SDS011;23337;52.212;9.926;2023-04-25T10:39:07;3.53;;;1.13;;
37483;SDS011;23337;52.212;9.926;2023-04-25T10:41:46;6.20;;;1.33;;
37483;SDS011;23337;52.212;9.926;2023-04-25T10:44:13;5.87;;;1.60;;
37483;SDS011;23337;52.212;9.926;2023-04-25T10:46:39;2.60;;;1.33;;
37483;SDS011;23337;52.212;9.926;2023-04-25T10:49:05;5.57;;;1.53;;
37483;SDS011;23337;52.212;9.926;2023-04-25T10:51:35;4.80;;;1.70;;
37483;SDS011;23337;52.212;9.926;2023-04-25T10:54:05;5.53;;;2.00;;
37483;SDS011;23337;52.212;9.926;2023-04-25T10:56:32;8.13;;;1.80;;
37483;SDS011;23337;52.212;9.926;2023-04-25T10:59:03;6.80;;;1.70;;
37483;SDS011;23337;52.212;9.926;2023-04-25T11:01:35;7.40;;;1.60;;
37483;SDS011;23337;52.212;9.926;2023-04-25T11:04:01;5.40;;;1.80;;
37483;SDS011;23337;52.212;9.926;2023-04-25T11:08:53;7.67;;;1.67;;
37483;SDS011;23337;52.212;9.926;2023-04-25T11:11:19;6.53;;;1.30;;
37483;SDS011;23337;52.212;9.926;2023-04-25T11:13:49;3.97;;;1.37;;
37483;SDS011;23337;52.212;9.926;2023-04-25T11:16:16;4.10;;;1.30;;
37483;SDS011;23337;52.212;9.926;2023-04-25T11:18:42;6.23;;;1.67;;
37483;SDS011;23337;52.212;9.926;2023-04-25T11:21:08;4.97;;;1.60;;
37483;SDS011;23337;52.212;9.926;2023-04-25T11:23:34;6.67;;;1.73;;
37483;SDS011;23337;52.212;9.926;2023-04-25T11:26:01;6.63;;;1.73;;
37483;SDS011;23337;52.212;9.926;2023-04-25T11:28:28;5.50;;;2.00;;
37483;SDS011;23337;52.212;9.926;2023-04-25T11:30:53;10.27;;;2.00;;
37483;SDS011;23337;52.212;9.926;2023-04-25T11:33:23;5.67;;;2.77;;
37483;SDS011;23337;52.212;9.926;2023-04-25T11:35:49;9.03;;;2.50;;
37483;SDS011;23337;52.212;9.926;2023-04-25T11:38:15;6.07;;;1.40;;
37483;SDS011;23337;52.212;9.926;2023-04-25T11:40:41;5.13;;;1.20;;
37483;SDS011;23337;52.212;9.926;2023-04-25T11:43:07;4.17;;;1.63;;
37483;SDS011;23337;52.212;9.926;2023-04-25T11:45:36;4.97;;;1.50;;
37483;SDS011;23337;52.212;9.926;2023-04-25T11:48:02;5.90;;;2.10;;
37483;SDS011;23337;52.212;9.926;2023-04-25T11:50:28;10.83;;;1.97;;
37483;SDS011;23337;52.212;9.926;2023-04-25T11:52:55;7.03;;;1.83;;
37483;SDS011;23337;52.212;9.926;2023-04-25T11:55:21;7.30;;;1.77;;
37483;SDS011;23337;52.212;9.926;2023-04-25T11:57:48;6.87;;;2.47;;
37483;SDS011;23337;52.212;9.926;2023-04-25T12:00:16;6.43;;;1.77;;
37483;SDS011;23337;52.212;9.926;2023-04-25T12:02:45;7.93;;;1.90;;
37483;SDS011;23337;52.212;9.926;2023-04-25T12:05:12;4.83;;;1.83;;
37483;SDS011;23337;52.212;9.926;2023-04-25T12:07:38;6.27;;;1.30;;
37483;SDS011;23337;52.212;9.926;2023-04-25T12:10:05;7.67;;;1.30;;
37483;SDS011;23337;52.212;9.926;2023-04-25T12:12:32;10.23;;;1.50;;
37483;SDS011;23337;52.212;9.926;2023-04-25T12:15:07;7.47;;;1.63;;
37483;SDS011;23337;52.212;9.926;2023-04-25T12:17:34;5.03;;;1.67;;
37483;SDS011;23337;52.212;9.926;2023-04-25T12:20:05;5.80;;;1.97;;
37483;SDS011;23337;52.212;9.926;2023-04-25T12:22:32;6.80;;;1.93;;
37483;SDS011;23337;52.212;9.926;2023-04-25T12:24:58;3.53;;;1.67;;
37483;SDS011;23337;52.212;9.926;2023-04-25T12:27:25;9.33;;;2.00;;
37483;SDS011;23337;52.212;9.926;2023-04-25T12:29:52;6.70;;;2.00;;
37483;SDS011;23337;52.212;9.926;2023-04-25T12:32:19;5.37;;;1.60;;
37483;SDS011;23337;52.212;9.926;2023-04-25T12:34:45;4.83;;;1.83;;
37483;SDS011;23337;52.212;9.926;2023-04-25T12:37:12;5.90;;;2.00;;
37483;SDS011;23337;52.212;9.926;2023-04-25T12:39:38;4.93;;;1.70;;
37483;SDS011;23337;52.212;9.926;2023-04-25T12:42:04;5.67;;;1.23;;
37483;SDS011;23337;52.212;9.926;2023-04-25T12:44:32;5.70;;;1.20;;
37483;SDS011;23337;52.212;9.926;2023-04-25T12:46:58;5.50;;;1.57;;
37483;SDS011;23337;52.212;9.926;2023-04-25T12:49:24;4.27;;;1.47;;
37483;SDS011;23337;52.212;9.926;2023-04-25T12:51:51;3.43;;;1.00;;
37483;SDS011;23337;52.212;9.926;2023-04-25T12:54:16;1.97;;;0.90;;
37483;SDS011;23337;52.212;9.926;2023-04-25T12:56:42;4.97;;;1.47;;
37483;SDS011;23337;52.212;9.926;2023-04-25T12:59:08;2.60;;;0.60;;
37483;SDS011;23337;52.212;9.926;2023-04-25T13:01:34;5.57;;;1.00;;
37483;SDS011;23337;52.212;9.926;2023-04-25T13:04:00;3.30;;;0.90;;
37483;SDS011;23337;52.212;9.926;2023-04-25T13:06:26;3.90;;;0.90;;
37483;SDS011;23337;52.212;9.926;2023-04-25T13:08:52;4.13;;;1.30;;
37483;SDS011;23337;52.212;9.926;2023-04-25T13:11:19;5.33;;;1.37;;
37483;SDS011;23337;52.212;9.926;2023-04-25T13:13:45;2.97;;;1.03;;
37483;SDS011;23337;52.212;9.926;2023-04-25T13:16:11;3.60;;;1.23;;
37483;SDS011;23337;52.212;9.926;2023-04-25T13:18:39;2.90;;;1.00;;
37483;SDS011;23337;52.212;9.926;2023-04-25T13:21:05;6.03;;;1.00;;
37483;SDS011;23337;52.212;9.926;2023-04-25T13:23:31;3.47;;;0.80;;
37483;SDS011;23337;52.212;9.926;2023-04-25T13:25:57;4.60;;;1.03;;
37483;SDS011;23337;52.212;9.926;2023-04-25T13:28:23;2.37;;;0.97;;
37483;SDS011;23337;52.212;9.926;2023-04-25T13:30:49;4.37;;;1.20;;
37483;SDS011;23337;52.212;9.926;2023-04-25T13:33:16;4.37;;;1.30;;
37483;SDS011;23337;52.212;9.926;2023-04-25T13:35:42;3.10;;;0.80;;
37483;SDS011;23337;52.212;9.926;2023-04-25T13:38:11;3.97;;;1.07;;
37483;SDS011;23337;52.212;9.926;2023-04-25T13:40:37;3.70;;;1.07;;
37483;SDS011;23337;52.212;9.926;2023-04-25T13:43:03;3.10;;;0.80;;
37483;SDS011;23337;52.212;9.926;2023-04-25T13:45:31;2.87;;;0.83;;
37483;SDS011;23337;52.212;9.926;2023-04-25T13:47:57;3.83;;;1.00;;
37483;SDS011;23337;52.212;9.926;2023-04-25T13:50:23;2.93;;;1.00;;
37483;SDS011;23337;52.212;9.926;2023-04-25T13:52:49;5.50;;;0.90;;
37483;SDS011;23337;52.212;9.926;2023-04-25T13:55:15;3.23;;;0.93;;
37483;SDS011;23337;52.212;9.926;2023-04-25T13:57:41;4.77;;;1.03;;
37483;SDS011;23337;52.212;9.926;2023-04-25T14:00:07;4.50;;;1.30;;
37483;SDS011;23337;52.212;9.926;2023-04-25T14:02:36;4.77;;;1.37;;
37483;SDS011;23337;52.212;9.926;2023-04-25T14:05:05;2.77;;;1.03;;
37483;SDS011;23337;52.212;9.926;2023-04-25T14:07:33;5.53;;;0.87;;
37483;SDS011;23337;52.212;9.926;2023-04-25T14:10:00;2.07;;;0.90;;
37483;SDS011;23337;52.212;9.926;2023-04-25T14:12:26;2.90;;;1.10;;
37483;SDS011;23337;52.212;9.926;2023-04-25T14:14:52;2.83;;;1.00;;
37483;SDS011;23337;52.212;9.926;2023-04-25T14:17:20;3.97;;;2.33;;
37483;SDS011;23337;52.212;9.926;2023-04-25T14:19:46;5.67;;;1.83;;
37483;SDS011;23337;52.212;9.926;2023-04-25T14:22:13;3.00;;;1.00;;
37483;SDS011;23337;52.212;9.926;2023-04-25T14:24:40;4.00;;;1.07;;
37483;SDS011;23337;52.212;9.926;2023-04-25T14:27:06;1.30;;;0.87;;
37483;SDS011;23337;52.212;9.926;2023-04-25T14:29:32;4.07;;;1.27;;
37483;SDS011;23337;52.212;9.926;2023-04-25T14:31:58;3.47;;;1.33;;
37483;SDS011;23337;52.212;9.926;2023-04-25T14:34:24;9.03;;;2.53;;
37483;SDS011;23337;52.212;9.926;2023-04-25T14:36:51;5.63;;;1.87;;
37483;SDS011;23337;52.212;9.926;2023-04-25T14:39:17;2.50;;;1.10;;